createdAt,value
2023-10-24T00:03:36.132Z,72.87
2023-10-24T00:06:04.815Z,72.44
2023-10-24T00:08:33.130Z,72.35
2023-10-24T00:11:02.850Z,72.10
2023-10-24T00:13:32.321Z,71.91
2023-10-24T00:16:02.065Z,71.70
2023-10-24T00:18:31.273Z,71.58
2023-10-24T00:21:00.236Z,71.44
2023-10-24T00:23:29.186Z,71.42
2023-10-24T00:25:57.871Z,71.35
2023-10-24T00:28:26.195Z,71.31
2023-10-24T00:30:54.532Z,71.16
2023-10-24T00:33:22.909Z,71.08
2023-10-24T00:35:51.868Z,71.05
2023-10-24T00:38:20.585Z,71.10
2023-10-24T00:40:49.153Z,71.14
2023-10-24T00:43:17.921Z,71.23
2023-10-24T00:45:46.626Z,71.34
2023-10-24T00:48:15.762Z,71.42
2023-10-24T00:50:44.702Z,71.49
2023-10-24T00:53:13.861Z,71.64
2023-10-24T00:55:43.047Z,71.75
2023-10-24T00:58:12.366Z,72.00
2023-10-24T01:00:45.792Z,72.12
2023-10-24T01:03:16.022Z,72.31
2023-10-24T01:05:45.543Z,72.47
2023-10-24T01:08:13.885Z,72.55
2023-10-24T01:10:42.851Z,72.69
2023-10-24T01:13:11.443Z,72.69
2023-10-24T01:15:39.908Z,72.73
2023-10-24T01:18:08.200Z,72.63
2023-10-24T01:20:37.201Z,72.57
2023-10-24T01:23:06.413Z,72.13
2023-10-24T01:25:40.409Z,71.62
2023-10-24T01:28:10.731Z,70.99
2023-10-24T01:30:41.060Z,70.47
2023-10-24T01:33:09.782Z,69.66
2023-10-24T01:35:38.285Z,69.30
2023-10-24T01:38:07.327Z,68.88
2023-10-24T01:40:35.839Z,68.12
2023-10-24T01:43:04.991Z,67.40
2023-10-24T01:45:34.555Z,67.09
2023-10-24T01:48:03.216Z,66.27
2023-10-24T01:50:31.555Z,65.85
2023-10-24T01:53:00.026Z,65.18
2023-10-24T01:55:29.074Z,64.53
2023-10-24T01:57:57.468Z,64.49
2023-10-24T02:00:26.036Z,63.83
2023-10-24T02:02:55.904Z,63.67
2023-10-24T02:05:24.966Z,63.49
2023-10-24T02:07:53.339Z,63.12
2023-10-24T02:10:21.692Z,62.56
2023-10-24T02:12:50.161Z,62.55
2023-10-24T02:15:18.571Z,62.18
2023-10-24T02:17:47.193Z,61.97
2023-10-24T02:20:15.992Z,61.60
2023-10-24T02:22:48.731Z,61.85
2023-10-24T02:25:17.441Z,61.97
2023-10-24T02:27:46.080Z,62.09
2023-10-24T02:30:14.988Z,61.96
2023-10-24T02:32:43.698Z,61.99
2023-10-24T02:35:12.009Z,61.89
2023-10-24T02:37:40.711Z,61.88
2023-10-24T02:40:10.921Z,61.78
2023-10-24T02:42:39.381Z,61.54
2023-10-24T02:45:08.453Z,61.38
2023-10-24T02:47:36.936Z,61.14
2023-10-24T02:50:06.280Z,60.95
2023-10-24T02:52:34.728Z,60.69
2023-10-24T02:55:03.252Z,60.60
2023-10-24T02:57:31.619Z,60.68
2023-10-24T03:00:00.146Z,60.36
2023-10-24T03:02:28.641Z,60.26
2023-10-24T03:04:57.130Z,59.91
2023-10-24T03:07:25.459Z,59.74
2023-10-24T03:09:54.064Z,59.68
2023-10-24T03:12:22.213Z,59.51
2023-10-24T03:14:52.763Z,59.52
2023-10-24T03:17:21.395Z,59.48
2023-10-24T03:19:49.857Z,59.39
2023-10-24T03:22:18.237Z,59.34
2023-10-24T03:24:47.070Z,59.60
2023-10-24T03:27:15.307Z,59.84
2023-10-24T03:29:44.844Z,59.85
2023-10-24T03:32:13.165Z,59.86
2023-10-24T03:34:43.639Z,59.77
2023-10-24T03:37:12.133Z,59.57
2023-10-24T03:39:40.790Z,59.57
2023-10-24T03:42:09.057Z,59.28
2023-10-24T03:44:38.045Z,59.35
2023-10-24T03:47:07.377Z,59.34
2023-10-24T03:49:35.890Z,59.42
2023-10-24T03:52:05.275Z,59.61
2023-10-24T03:54:33.785Z,59.62
2023-10-24T03:57:02.933Z,59.63
2023-10-24T03:59:31.337Z,59.83
2023-10-24T04:01:59.671Z,59.55
2023-10-24T04:04:30.880Z,59.39
2023-10-24T04:06:59.241Z,59.11
2023-10-24T04:09:38.164Z,59.08
2023-10-24T04:12:07.913Z,58.94
2023-10-24T04:14:36.831Z,58.55
2023-10-24T04:17:06.405Z,58.28
2023-10-24T04:19:35.232Z,58.20
2023-10-24T04:22:03.813Z,57.74
2023-10-24T04:24:32.185Z,57.69
2023-10-24T04:27:00.739Z,57.46
2023-10-24T04:29:28.969Z,57.30
2023-10-24T04:31:57.260Z,57.20
2023-10-24T04:34:26.255Z,56.84
2023-10-24T04:36:57.860Z,56.82
2023-10-24T04:39:28.458Z,56.82
2023-10-24T04:41:56.696Z,56.67
2023-10-24T04:44:26.317Z,56.53
2023-10-24T04:46:54.829Z,56.47
2023-10-24T04:49:24.185Z,56.46
2023-10-24T04:51:53.508Z,56.45
2023-10-24T04:54:23.113Z,56.51
2023-10-24T04:56:51.568Z,56.29
2023-10-24T04:59:20.468Z,56.34
2023-10-24T05:01:50.706Z,56.34
2023-10-24T05:04:22.553Z,56.34
2023-10-24T05:06:52.192Z,56.31
2023-10-24T05:09:21.114Z,56.30
2023-10-24T05:11:50.589Z,56.23
2023-10-24T05:14:19.500Z,56.26
2023-10-24T05:16:55.359Z,56.31
2023-10-24T05:19:24.749Z,56.30
2023-10-24T05:21:54.195Z,56.20
2023-10-24T05:24:22.539Z,56.02
2023-10-24T05:26:51.788Z,56.01
2023-10-24T05:29:20.624Z,55.87
2023-10-24T05:31:49.025Z,55.76
2023-10-24T05:34:17.606Z,55.76
2023-10-24T05:36:47.605Z,55.79
2023-10-24T05:39:16.407Z,55.70
2023-10-24T05:41:44.721Z,55.64
2023-10-24T05:44:13.158Z,55.59
2023-10-24T05:46:42.411Z,55.51
2023-10-24T05:49:11.462Z,55.55
2023-10-24T05:51:40.044Z,55.41
2023-10-24T05:54:08.857Z,55.39
2023-10-24T05:56:37.728Z,55.35
2023-10-24T05:59:06.005Z,55.33
2023-10-24T06:01:34.499Z,55.33
2023-10-24T06:04:03.270Z,55.31
2023-10-24T06:06:31.801Z,55.39
2023-10-24T06:09:00.109Z,55.48
2023-10-24T06:11:29.017Z,55.44
2023-10-24T06:13:57.491Z,55.32
2023-10-24T06:16:25.946Z,55.52
2023-10-24T06:18:54.359Z,55.51
2023-10-24T06:21:24.403Z,55.30
2023-10-24T06:23:53.731Z,55.44
2023-10-24T06:26:22.287Z,55.59
2023-10-24T06:28:50.660Z,55.56
2023-10-24T06:31:19.271Z,55.52
2023-10-24T06:33:47.734Z,55.48
2023-10-24T06:36:16.026Z,55.47
2023-10-24T06:38:44.313Z,55.74
2023-10-24T06:41:12.726Z,55.81
2023-10-24T06:43:41.252Z,55.95
2023-10-24T06:46:09.681Z,55.97
2023-10-24T06:48:38.453Z,55.99
2023-10-24T06:51:06.849Z,56.16
2023-10-24T06:53:35.389Z,56.68
2023-10-24T06:56:04.691Z,56.43
2023-10-24T06:58:33.010Z,55.21
2023-10-24T07:01:01.814Z,53.34
2023-10-24T07:03:30.226Z,50.42
2023-10-24T07:05:59.427Z,48.11
2023-10-24T07:08:27.770Z,45.25
2023-10-24T07:10:56.416Z,42.52
2023-10-24T07:13:24.940Z,40.51
2023-10-24T07:15:53.413Z,38.39
2023-10-24T07:18:21.991Z,38.76
2023-10-24T07:20:50.346Z,38.50
2023-10-24T07:23:18.762Z,38.03
2023-10-24T07:25:47.906Z,37.13
2023-10-24T07:28:16.931Z,34.03
2023-10-24T07:30:50.252Z,32.47
2023-10-24T07:33:23.036Z,31.37
2023-10-24T07:35:51.464Z,29.85
2023-10-24T07:38:20.133Z,28.81
2023-10-24T07:40:51.439Z,27.62
2023-10-24T07:43:19.964Z,27.82
2023-10-24T07:45:52.417Z,24.91
2023-10-24T07:48:22.038Z,23.91
2023-10-24T07:50:55.297Z,23.92
2023-10-24T07:53:25.850Z,23.20
2023-10-24T07:55:54.847Z,21.39
2023-10-24T07:58:26.469Z,21.64
2023-10-24T08:00:55.643Z,20.50
2023-10-24T08:03:24.030Z,20.50
2023-10-24T08:05:53.828Z,19.13
2023-10-24T08:08:23.443Z,18.72
2023-10-24T08:10:53.166Z,18.55
2023-10-24T08:13:21.773Z,18.77
2023-10-24T08:15:53.503Z,17.92
2023-10-24T08:18:23.133Z,18.13
2023-10-24T08:20:51.552Z,17.10
2023-10-24T08:23:21.556Z,16.90
2023-10-24T08:25:49.973Z,17.31
2023-10-24T08:28:20.078Z,16.72
2023-10-24T08:30:54.798Z,16.72
2023-10-24T08:33:23.509Z,16.20
2023-10-24T08:35:52.063Z,16.28
2023-10-24T08:38:22.724Z,16.67
2023-10-24T08:40:51.444Z,17.22
2023-10-24T08:43:24.131Z,18.02
2023-10-24T08:45:53.591Z,18.87
2023-10-24T08:48:25.152Z,19.42
2023-10-24T08:50:53.789Z,20.38
2023-10-24T08:53:22.186Z,20.54
2023-10-24T08:55:51.909Z,20.26
2023-10-24T08:58:22.128Z,20.11
2023-10-24T09:00:52.458Z,19.67
2023-10-24T09:03:23.862Z,19.30
2023-10-24T09:05:53.553Z,18.70
2023-10-24T09:08:21.931Z,17.98
2023-10-24T09:10:50.761Z,17.87
2023-10-24T09:13:19.580Z,17.35
2023-10-24T09:16:06.349Z,17.13
2023-10-24T09:18:36.953Z,16.85
2023-10-24T09:21:10.095Z,16.36
2023-10-24T09:23:39.413Z,16.32
2023-10-24T09:26:09.275Z,15.84
2023-10-24T09:28:38.452Z,15.51
2023-10-24T09:31:06.738Z,15.56
2023-10-24T09:33:42.053Z,15.37
2023-10-24T09:36:15.675Z,14.74
2023-10-24T09:38:47.087Z,15.03
2023-10-24T09:41:15.575Z,14.78
2023-10-24T09:43:49.332Z,14.62
2023-10-24T09:46:20.403Z,14.41
2023-10-24T09:48:48.998Z,14.25
2023-10-24T09:51:23.058Z,14.21
2023-10-24T09:53:53.150Z,14.30
2023-10-24T09:56:22.672Z,14.03
2023-10-24T09:58:52.769Z,13.95
2023-10-24T10:01:22.567Z,13.97
2023-10-24T10:03:51.775Z,13.84
2023-10-24T10:06:33.115Z,13.92
2023-10-24T10:09:13.434Z,13.83
2023-10-24T10:11:46.518Z,13.98
2023-10-24T10:14:30.722Z,13.96
2023-10-24T10:16:59.024Z,13.95
2023-10-24T10:19:52.735Z,14.03
2023-10-24T10:22:42.421Z,14.07
2023-10-24T10:25:32.653Z,13.95
2023-10-24T10:28:17.281Z,14.27
2023-10-24T10:32:39.836Z,14.27
2023-10-24T10:33:56.158Z,14.60
2023-10-24T10:36:26.443Z,14.60
2023-10-24T10:38:54.929Z,14.69
2023-10-24T10:41:26.095Z,14.78
2023-10-24T10:43:56.696Z,14.82
2023-10-24T10:46:34.218Z,14.82
2023-10-24T10:49:04.984Z,15.03
2023-10-24T10:51:40.646Z,15.10
2023-10-24T10:54:21.409Z,15.03
2023-10-24T10:56:50.556Z,14.96
2023-10-24T10:59:33.578Z,14.88
2023-10-24T11:02:26.402Z,14.79
2023-10-24T11:04:54.753Z,14.65
2023-10-24T11:07:52.579Z,14.41
2023-10-24T11:10:21.086Z,14.38
2023-10-24T11:12:49.839Z,14.36
2023-10-24T11:15:24.123Z,14.55
2023-10-24T11:17:53.892Z,14.94
2023-10-24T11:20:23.965Z,15.10
2023-10-24T11:22:52.648Z,15.31
2023-10-24T11:25:21.154Z,15.77
2023-10-24T11:27:49.797Z,16.05
2023-10-24T11:30:19.173Z,16.19
2023-10-24T11:32:47.676Z,16.54
2023-10-24T11:35:16.131Z,16.86
2023-10-24T11:37:44.383Z,17.52
2023-10-24T11:40:13.342Z,18.01
2023-10-24T11:42:41.865Z,18.45
2023-10-24T11:45:10.648Z,18.91
2023-10-24T11:47:38.982Z,19.27
2023-10-24T11:50:07.892Z,19.52
2023-10-24T11:52:36.424Z,20.17
2023-10-24T11:55:05.796Z,20.41
2023-10-24T11:57:34.290Z,20.67
2023-10-24T12:00:02.591Z,20.88
2023-10-24T12:02:41.884Z,21.41
2023-10-24T12:05:10.643Z,21.44
2023-10-24T12:07:39.066Z,21.41
2023-10-24T12:10:11.790Z,21.67
2023-10-24T12:12:43.516Z,21.91
2023-10-24T12:15:12.333Z,21.82
2023-10-24T12:17:45.030Z,21.72
2023-10-24T12:20:14.119Z,22.06
2023-10-24T12:22:42.967Z,22.13
2023-10-24T12:25:11.502Z,22.27
2023-10-24T12:27:41.590Z,22.02
2023-10-24T12:30:10.160Z,22.02
2023-10-24T12:32:39.254Z,21.91
2023-10-24T12:35:08.107Z,22.05
2023-10-24T12:37:37.421Z,22.23
2023-10-24T12:40:06.571Z,22.32
2023-10-24T12:42:35.341Z,22.49
2023-10-24T12:45:05.019Z,22.36
2023-10-24T12:47:34.105Z,22.56
2023-10-24T12:50:02.630Z,22.54
2023-10-24T12:52:31.333Z,22.67
2023-10-24T12:54:59.745Z,22.23
2023-10-24T12:57:28.158Z,22.13
2023-10-24T12:59:56.794Z,22.00
2023-10-24T13:02:25.219Z,21.82
2023-10-24T13:04:54.359Z,21.92
2023-10-24T13:07:22.648Z,22.40
2023-10-24T13:09:50.966Z,22.18
2023-10-24T13:12:19.445Z,22.01
2023-10-24T13:14:47.702Z,21.83
2023-10-24T13:17:16.534Z,21.91
2023-10-24T13:19:47.267Z,21.91
2023-10-24T13:22:15.610Z,21.88
2023-10-24T13:24:43.959Z,21.93
2023-10-24T13:27:12.334Z,21.91
2023-10-24T13:29:40.970Z,21.91
2023-10-24T13:32:09.763Z,22.04
2023-10-24T13:37:10.282Z,22.13
2023-10-24T13:39:39.119Z,22.61
2023-10-24T13:42:07.518Z,23.41
2023-10-24T13:44:36.229Z,24.58
2023-10-24T13:47:04.740Z,27.35
2023-10-24T13:49:33.186Z,29.04
2023-10-24T13:52:02.620Z,32.62
2023-10-24T13:54:31.138Z,33.35
2023-10-24T13:56:59.451Z,34.46
2023-10-24T13:59:27.702Z,34.82
2023-10-24T14:01:56.070Z,34.89
2023-10-24T14:04:24.731Z,34.97
2023-10-24T14:06:53.126Z,35.75
2023-10-24T14:09:21.696Z,35.42
2023-10-24T14:11:49.936Z,35.45
2023-10-24T14:14:18.246Z,36.10
2023-10-24T14:16:47.041Z,36.72
2023-10-24T14:19:15.399Z,37.05
2023-10-24T14:21:43.711Z,37.16
2023-10-24T14:24:12.615Z,37.30
2023-10-24T14:26:40.792Z,38.16
2023-10-24T14:29:09.176Z,39.45
2023-10-24T14:31:37.789Z,40.71
2023-10-24T14:34:06.239Z,42.25
2023-10-24T14:36:34.536Z,43.92
2023-10-24T14:39:02.956Z,44.50
2023-10-24T14:41:31.480Z,44.68
2023-10-24T14:44:00.438Z,44.43
2023-10-24T14:46:29.061Z,44.65
2023-10-24T14:48:57.582Z,45.73
2023-10-24T14:51:26.568Z,46.00
2023-10-24T14:53:55.406Z,46.83
2023-10-24T14:56:23.751Z,48.09
2023-10-24T14:58:52.038Z,50.21
2023-10-24T15:01:20.387Z,51.81
2023-10-24T15:03:48.828Z,53.17
2023-10-24T15:06:18.349Z,53.02
2023-10-24T15:08:47.064Z,53.19
2023-10-24T15:11:15.289Z,53.21
2023-10-24T15:13:43.628Z,52.69
2023-10-24T15:16:12.170Z,52.66
2023-10-24T15:18:40.759Z,52.46
2023-10-24T15:21:09.136Z,52.66
2023-10-24T15:23:37.520Z,53.11
2023-10-24T15:26:05.997Z,53.57
2023-10-24T15:28:34.492Z,53.99
2023-10-24T15:31:08.560Z,54.32
2023-10-24T15:33:37.108Z,55.04
2023-10-24T15:36:05.764Z,55.50
2023-10-24T15:38:34.455Z,55.55
2023-10-24T15:41:03.022Z,56.09
2023-10-24T15:43:32.251Z,55.88
2023-10-24T15:46:18.926Z,56.54
2023-10-24T15:48:50.899Z,56.53
2023-10-24T15:51:20.072Z,56.73
2023-10-24T15:53:48.912Z,56.68
2023-10-24T15:56:17.492Z,56.68
2023-10-24T15:58:46.054Z,56.87
2023-10-24T16:01:19.347Z,56.96
2023-10-24T16:03:48.095Z,56.71
2023-10-24T16:06:16.569Z,56.58
2023-10-24T16:08:44.789Z,56.16
2023-10-24T16:11:13.772Z,55.78
2023-10-24T16:13:42.296Z,55.51
2023-10-24T16:16:11.540Z,55.44
2023-10-24T16:18:40.088Z,55.23
2023-10-24T16:21:08.484Z,55.22
2023-10-24T16:23:37.110Z,55.23
2023-10-24T16:26:05.874Z,55.36
2023-10-24T16:28:34.524Z,55.51
2023-10-24T16:31:02.922Z,55.65
2023-10-24T16:33:31.421Z,55.73
2023-10-24T16:36:02.387Z,56.02
2023-10-24T16:38:30.980Z,56.27
2023-10-24T16:41:00.178Z,56.63
2023-10-24T16:43:29.913Z,56.71
2023-10-24T16:45:59.032Z,56.67
2023-10-24T16:48:27.430Z,56.90
2023-10-24T16:50:57.547Z,57.06
2023-10-24T16:53:27.293Z,57.43
2023-10-24T16:55:57.082Z,57.59
2023-10-24T16:58:26.148Z,57.78
2023-10-24T17:00:56.212Z,57.98
2023-10-24T17:03:24.669Z,58.12
2023-10-24T17:05:54.190Z,58.27
2023-10-24T17:08:22.659Z,58.51
2023-10-24T17:10:59.037Z,58.65
2023-10-24T17:13:27.630Z,58.96
2023-10-24T17:15:59.839Z,59.40
2023-10-24T17:18:28.250Z,60.05
2023-10-24T17:20:56.796Z,60.49
2023-10-24T17:23:25.980Z,60.80
2023-10-24T17:25:54.753Z,60.82
2023-10-24T17:28:23.123Z,61.08
2023-10-24T17:30:52.692Z,61.41
2023-10-24T17:33:21.104Z,61.74
2023-10-24T17:35:50.975Z,61.96
2023-10-24T17:38:19.620Z,62.11
2023-10-24T17:40:48.174Z,62.18
2023-10-24T17:43:16.540Z,62.36
2023-10-24T17:45:45.050Z,62.67
2023-10-24T17:48:13.513Z,62.77
2023-10-24T17:50:42.321Z,62.91
2023-10-24T17:53:11.522Z,63.06
2023-10-24T17:55:41.752Z,63.18
2023-10-24T17:58:10.291Z,63.00
2023-10-24T18:00:38.726Z,62.90
2023-10-24T18:03:07.143Z,62.11
2023-10-24T18:05:38.686Z,61.66
2023-10-24T18:08:07.940Z,61.32
2023-10-24T18:10:36.656Z,61.07
2023-10-24T18:13:05.032Z,60.70
2023-10-24T18:15:33.836Z,60.50
2023-10-24T18:18:02.282Z,60.47
2023-10-24T18:20:34.999Z,60.26
2023-10-24T18:23:03.402Z,59.95
2023-10-24T18:25:31.692Z,59.94
2023-10-24T18:28:00.053Z,59.61
2023-10-24T18:30:28.388Z,59.35
2023-10-24T18:32:56.682Z,59.10
2023-10-24T18:35:25.430Z,58.83
2023-10-24T18:37:53.722Z,58.71
2023-10-24T18:40:22.076Z,58.61
2023-10-24T18:42:51.107Z,58.60
2023-10-24T18:45:19.392Z,58.56
2023-10-24T18:47:47.651Z,58.52
2023-10-24T18:52:44.780Z,57.93
2023-10-24T18:55:13.216Z,57.38
2023-10-24T18:57:41.981Z,57.60
2023-10-24T19:00:10.682Z,57.54
2023-10-24T19:02:39.862Z,57.21
2023-10-24T19:05:08.631Z,56.80
2023-10-24T19:07:37.405Z,56.69
2023-10-24T19:10:07.281Z,55.92
2023-10-24T19:12:36.418Z,54.61
2023-10-24T19:15:06.611Z,54.01
2023-10-24T19:17:35.069Z,53.78
2023-10-24T19:20:04.468Z,53.53
2023-10-24T19:22:33.280Z,53.39
2023-10-24T19:25:04.029Z,53.63
2023-10-24T19:27:34.506Z,53.43
2023-10-24T19:30:03.115Z,53.10
2023-10-24T19:32:31.782Z,52.55
2023-10-24T19:35:00.506Z,52.42
2023-10-24T19:37:29.946Z,52.22
2023-10-24T19:39:58.607Z,51.83
2023-10-24T19:42:27.626Z,51.57
2023-10-24T19:44:56.809Z,51.06
2023-10-24T19:47:29.133Z,50.62
2023-10-24T19:49:57.604Z,49.86
2023-10-24T19:52:26.341Z,49.76
2023-10-24T19:54:55.081Z,48.93
2023-10-24T19:57:23.661Z,47.90
2023-10-24T19:59:52.071Z,46.44
2023-10-24T20:02:21.015Z,45.71
2023-10-24T20:04:50.045Z,45.47
2023-10-24T20:07:20.530Z,45.16
2023-10-24T20:11:34.913Z,44.65
2023-10-24T20:12:43.367Z,44.59
2023-10-24T20:15:12.742Z,44.08
2023-10-24T20:17:43.010Z,44.62
2023-10-24T20:20:13.649Z,45.01
2023-10-24T20:22:42.610Z,45.46
2023-10-24T20:25:11.064Z,46.06
2023-10-24T20:27:40.928Z,46.27
2023-10-24T20:30:10.120Z,46.34
2023-10-24T20:32:38.635Z,46.65
2023-10-24T20:35:07.248Z,46.97
2023-10-24T20:37:35.697Z,47.21
2023-10-24T20:40:05.205Z,46.98
2023-10-24T20:42:34.143Z,46.62
2023-10-24T20:45:03.337Z,46.39
2023-10-24T20:47:31.671Z,46.21
2023-10-24T20:50:00.163Z,45.81
2023-10-24T20:52:28.774Z,45.53
2023-10-24T20:54:57.341Z,45.64
2023-10-24T20:57:25.742Z,45.58
2023-10-24T20:59:54.391Z,45.26
2023-10-24T21:02:23.842Z,44.49
2023-10-24T21:04:52.607Z,43.97
2023-10-24T21:07:21.338Z,43.64
2023-10-24T21:09:49.727Z,43.50
2023-10-24T21:12:18.247Z,43.37
2023-10-24T21:14:47.733Z,43.23
2023-10-24T21:17:16.480Z,43.28
2023-10-24T21:19:45.064Z,42.95
2023-10-24T21:22:14.128Z,42.72
2023-10-24T21:24:44.618Z,42.72
2023-10-24T21:27:13.338Z,42.52
2023-10-24T21:29:42.293Z,42.25
2023-10-24T21:32:11.152Z,42.14
2023-10-24T21:34:40.350Z,42.21
2023-10-24T21:37:09.301Z,42.27
2023-10-24T21:39:37.914Z,41.99
2023-10-24T21:42:06.900Z,41.74
2023-10-24T21:44:43.521Z,41.45
2023-10-24T21:47:19.283Z,41.52
2023-10-24T21:49:47.842Z,41.32
2023-10-24T21:52:16.348Z,41.22
2023-10-24T21:54:45.663Z,41.29
2023-10-24T21:57:14.308Z,41.21
2023-10-24T21:59:43.565Z,41.24
2023-10-24T22:02:13.608Z,41.15
2023-10-24T22:04:42.037Z,41.01
2023-10-24T22:07:11.086Z,41.03
2023-10-24T22:09:40.090Z,41.15
2023-10-24T22:12:08.942Z,41.13
2023-10-24T22:14:37.342Z,41.07
2023-10-24T22:17:06.014Z,41.05
2023-10-24T22:19:34.397Z,40.94
2023-10-24T22:22:03.128Z,40.91
2023-10-24T22:24:31.882Z,40.79
2023-10-24T22:27:00.197Z,40.86
2023-10-24T22:29:28.550Z,40.88
2023-10-24T22:31:57.018Z,40.75
2023-10-24T22:34:25.462Z,40.83
2023-10-24T22:36:53.817Z,40.86
2023-10-24T22:39:22.206Z,40.88
2023-10-24T22:41:50.577Z,40.85
2023-10-24T22:44:19.212Z,40.94
2023-10-24T22:46:47.832Z,40.86
2023-10-24T22:49:16.223Z,40.71
2023-10-24T22:51:45.756Z,40.79
2023-10-24T22:54:14.281Z,40.80
2023-10-24T22:56:42.564Z,40.79
2023-10-24T22:59:10.842Z,40.92
2023-10-24T23:01:39.246Z,40.90
2023-10-24T23:04:07.568Z,40.91
2023-10-24T23:06:35.989Z,40.94
2023-10-24T23:09:04.719Z,40.97
2023-10-24T23:11:33.295Z,41.06
2023-10-24T23:14:01.852Z,41.06
2023-10-24T23:16:31.076Z,40.95
2023-10-24T23:18:59.704Z,41.10
2023-10-24T23:21:28.167Z,41.04
2023-10-24T23:23:57.011Z,40.97
2023-10-24T23:26:25.265Z,40.93
2023-10-24T23:28:53.674Z,40.83
2023-10-24T23:31:22.404Z,40.81
2023-10-24T23:33:54.447Z,40.85
2023-10-24T23:36:22.916Z,40.80
2023-10-24T23:38:51.200Z,40.71
2023-10-24T23:41:20.086Z,40.72
2023-10-24T23:43:48.750Z,40.68
2023-10-24T23:46:17.190Z,40.75
2023-10-24T23:48:45.923Z,40.77
2023-10-24T23:51:14.354Z,40.77
2023-10-24T23:53:42.704Z,40.74
2023-10-24T23:56:11.111Z,40.73
2023-10-24T23:58:39.716Z,40.68
